createdAt,value
2019-05-12T00:00:19.038Z,0.00
2019-05-12T00:01:19.262Z,0.00
2019-05-12T00:02:19.483Z,0.00
2019-05-12T00:03:19.705Z,0.00
2019-05-12T00:04:19.930Z,0.00
2019-05-12T00:05:20.179Z,0.00
2019-05-12T00:06:20.373Z,0.00
2019-05-12T00:07:20.609Z,0.00
2019-05-12T00:08:20.823Z,0.00
2019-05-12T00:09:21.036Z,0.00
2019-05-12T00:10:21.256Z,0.00
2019-05-12T00:11:21.491Z,0.00
2019-05-12T00:12:21.707Z,0.00
2019-05-12T00:13:21.931Z,0.00
2019-05-12T00:14:22.155Z,0.00
2019-05-12T00:15:22.374Z,0.00
2019-05-12T00:16:22.611Z,0.00
2019-05-12T00:17:22.822Z,0.00
2019-05-12T00:18:23.042Z,0.00
2019-05-12T00:19:23.266Z,0.00
2019-05-12T00:20:23.484Z,0.00
2019-05-12T00:21:23.707Z,0.00
2019-05-12T00:22:23.928Z,0.00
2019-05-12T00:23:28.091Z,0.00
2019-05-12T00:24:24.369Z,0.00
2019-05-12T00:25:24.590Z,0.00
2019-05-12T00:26:24.815Z,0.00
2019-05-12T00:27:25.065Z,0.00
2019-05-12T00:28:25.260Z,0.00
2019-05-12T00:29:25.489Z,0.00
2019-05-12T00:30:27.669Z,0.00
2019-05-12T00:31:27.999Z,0.00
2019-05-12T00:32:28.100Z,0.00
2019-05-12T00:33:28.186Z,0.00
2019-05-12T00:34:28.684Z,0.00
2019-05-12T00:35:28.491Z,0.00
2019-05-12T00:36:29.060Z,0.00
2019-05-12T00:37:28.866Z,0.00
2019-05-12T00:38:27.818Z,0.00
2019-05-12T00:39:27.965Z,0.00
2019-05-12T00:40:28.114Z,0.00
2019-05-12T00:41:28.441Z,0.00
2019-05-12T00:42:28.771Z,0.00
2019-05-12T00:43:28.616Z,0.00
2019-05-12T00:44:28.838Z,0.00
2019-05-12T00:45:29.515Z,0.00
2019-05-12T00:46:29.320Z,0.00
2019-05-12T00:47:29.515Z,0.00
2019-05-12T00:48:29.742Z,0.00
2019-05-12T00:49:29.962Z,0.00
2019-05-12T00:50:30.186Z,0.00
2019-05-12T00:51:30.413Z,0.00
2019-05-12T00:52:30.640Z,0.00
2019-05-12T00:53:39.926Z,0.00
2019-05-12T00:54:31.077Z,0.00
2019-05-12T00:55:31.299Z,0.00
2019-05-12T00:56:31.524Z,0.00
2019-05-12T00:57:31.744Z,0.00
2019-05-12T00:58:31.969Z,0.00
2019-05-12T00:59:32.190Z,0.00
2019-05-12T01:00:32.415Z,0.00
2019-05-12T01:01:32.639Z,0.00
2019-05-12T01:02:32.859Z,0.00
2019-05-12T01:03:33.079Z,0.00
2019-05-12T01:04:33.305Z,0.00
2019-05-12T01:05:33.528Z,0.00
2019-05-12T01:06:33.752Z,0.00
2019-05-12T01:07:33.974Z,0.00
2019-05-12T01:08:34.199Z,0.00
2019-05-12T01:09:34.421Z,0.00
2019-05-12T01:10:34.643Z,0.00
2019-05-12T01:11:34.869Z,0.00
2019-05-12T01:12:35.095Z,0.00
2019-05-12T01:13:35.315Z,0.00
2019-05-12T01:14:35.537Z,0.00
2019-05-12T01:15:37.820Z,0.00
2019-05-12T01:16:38.334Z,0.00
2019-05-12T01:17:40.062Z,0.00
2019-05-12T01:18:38.399Z,0.00
2019-05-12T01:19:37.425Z,0.00
2019-05-12T01:20:38.893Z,0.00
2019-05-12T01:21:37.678Z,0.00
2019-05-12T01:22:38.227Z,0.00
2019-05-12T01:23:53.278Z,0.00
2019-05-12T01:24:38.425Z,0.00
2019-05-12T01:25:39.549Z,0.00
2019-05-12T01:26:38.785Z,0.00
2019-05-12T01:27:38.439Z,0.00
2019-05-12T01:28:38.663Z,0.00
2019-05-12T01:29:38.886Z,0.00
2019-05-12T01:30:39.567Z,0.00
2019-05-12T01:31:39.334Z,0.00
2019-05-12T01:32:39.564Z,0.00
2019-05-12T01:33:39.781Z,0.00
2019-05-12T01:34:40.002Z,0.00
2019-05-12T01:35:40.226Z,0.00
2019-05-12T01:36:40.450Z,0.00
2019-05-12T01:37:40.672Z,0.00
2019-05-12T01:38:40.901Z,0.00
2019-05-12T01:39:41.121Z,0.00
2019-05-12T01:40:41.344Z,0.00
2019-05-12T01:41:41.571Z,0.00
2019-05-12T01:42:41.791Z,0.00
2019-05-12T01:43:42.015Z,0.00
2019-05-12T01:44:42.239Z,0.00
2019-05-12T01:45:42.462Z,0.00
2019-05-12T01:46:42.687Z,0.00
2019-05-12T01:47:42.908Z,0.00
2019-05-12T01:48:43.131Z,0.00
2019-05-12T01:49:43.353Z,0.00
2019-05-12T01:50:43.577Z,0.00
2019-05-12T01:51:43.801Z,0.00
2019-05-12T01:52:44.025Z,0.00
2019-05-12T01:53:44.246Z,0.00
2019-05-12T01:54:44.473Z,0.00
2019-05-12T01:55:44.693Z,0.00
2019-05-12T01:56:44.918Z,0.00
2019-05-12T01:57:45.138Z,0.00
2019-05-12T01:58:45.364Z,0.00
2019-05-12T01:59:45.586Z,0.00
2019-05-12T02:00:48.102Z,0.00
2019-05-12T02:01:46.033Z,0.00
2019-05-12T02:02:48.098Z,0.00
2019-05-12T02:03:48.071Z,0.00
2019-05-12T02:04:48.361Z,0.00
2019-05-12T02:05:48.544Z,0.00
2019-05-12T02:06:48.557Z,0.00
2019-05-12T02:07:48.022Z,0.00
2019-05-12T02:08:47.852Z,0.00
2019-05-12T02:09:48.109Z,0.00
2019-05-12T02:10:48.164Z,0.00
2019-05-12T02:11:48.433Z,0.00
2019-05-12T02:12:49.251Z,0.00
2019-05-12T02:13:48.842Z,0.00
2019-05-12T02:14:48.928Z,0.00
2019-05-12T02:15:49.152Z,0.00
2019-05-12T02:16:49.371Z,0.00
2019-05-12T02:17:49.596Z,0.00
2019-05-12T02:18:49.818Z,0.00
2019-05-12T02:19:50.047Z,0.00
2019-05-12T02:20:50.266Z,0.00
2019-05-12T02:21:50.488Z,0.00
2019-05-12T02:22:50.718Z,0.00
2019-05-12T02:23:50.931Z,0.00
2019-05-12T02:24:51.155Z,0.00
2019-05-12T02:25:51.378Z,0.00
2019-05-12T02:26:51.601Z,0.00
2019-05-12T02:27:51.824Z,0.00
2019-05-12T02:28:52.049Z,0.00
2019-05-12T02:29:52.273Z,0.00
2019-05-12T02:30:52.498Z,0.00
2019-05-12T02:31:52.718Z,0.00
2019-05-12T02:32:57.567Z,0.00
2019-05-12T02:33:55.071Z,0.00
2019-05-12T02:34:54.788Z,0.00
2019-05-12T02:35:54.820Z,0.00
2019-05-12T02:36:55.472Z,0.00
2019-05-12T02:37:55.087Z,0.00
2019-05-12T02:38:55.960Z,0.00
2019-05-12T02:39:55.558Z,0.00
2019-05-12T02:40:55.446Z,0.00
2019-05-12T02:41:54.946Z,0.00
2019-05-12T02:42:55.371Z,0.00
2019-05-12T02:43:55.638Z,0.00
2019-05-12T02:44:55.621Z,0.00
2019-05-12T02:45:55.842Z,0.00
2019-05-12T02:46:56.064Z,0.00
2019-05-12T02:47:56.290Z,0.00
2019-05-12T02:48:56.517Z,0.00
2019-05-12T02:49:56.736Z,0.00
2019-05-12T02:50:56.959Z,0.00
2019-05-12T02:51:57.181Z,0.00
2019-05-12T02:52:57.407Z,0.00
2019-05-12T02:53:57.628Z,0.00
2019-05-12T02:55:00.737Z,0.00
2019-05-12T02:55:58.072Z,0.00
2019-05-12T02:56:58.297Z,0.00
2019-05-12T02:57:58.527Z,0.00
2019-05-12T02:58:58.744Z,0.00
2019-05-12T02:59:58.968Z,0.00
2019-05-12T03:00:59.190Z,0.00
2019-05-12T03:01:59.414Z,0.00
2019-05-12T03:02:59.638Z,4.00
2019-05-12T03:03:59.862Z,4.00
2019-05-12T03:05:00.086Z,4.00
2019-05-12T03:06:00.304Z,4.00
2019-05-12T03:07:05.469Z,4.00
2019-05-12T03:08:00.755Z,4.00
2019-05-12T03:09:00.976Z,4.00
2019-05-12T03:10:04.608Z,0.00
2019-05-12T03:11:01.421Z,4.00
2019-05-12T03:12:01.647Z,4.00
2019-05-12T03:13:04.304Z,4.00
2019-05-12T03:14:04.020Z,4.00
2019-05-12T03:15:05.097Z,8.00
2019-05-12T03:16:04.905Z,4.00
2019-05-12T03:17:04.728Z,4.00
2019-05-12T03:18:06.243Z,4.00
2019-05-12T03:19:04.997Z,8.00
2019-05-12T03:20:04.988Z,12.00
2019-05-12T03:21:05.630Z,12.00
2019-05-12T03:22:05.062Z,12.00
2019-05-12T03:23:05.832Z,12.00
2019-05-12T03:24:06.087Z,12.00
2019-05-12T03:25:15.365Z,16.00
2019-05-12T03:26:05.361Z,20.00
2019-05-12T03:27:04.993Z,24.00
2019-05-12T03:28:08.919Z,20.00
2019-05-12T03:29:06.084Z,24.00
2019-05-12T03:30:12.040Z,28.00
2019-05-12T03:31:07.681Z,24.00
2019-05-12T03:32:08.165Z,28.00
2019-05-12T03:33:09.355Z,28.00
2019-05-12T03:34:09.385Z,24.00
2019-05-12T03:35:08.930Z,32.00
2019-05-12T03:36:09.670Z,36.00
2019-05-12T03:37:08.271Z,40.00
2019-05-12T03:38:07.472Z,44.00
2019-05-12T03:39:07.672Z,44.00
2019-05-12T03:40:07.917Z,48.00
2019-05-12T03:41:08.128Z,48.00
2019-05-12T03:42:08.349Z,48.00
2019-05-12T03:43:08.578Z,52.00
2019-05-12T03:44:08.792Z,48.00
2019-05-12T03:45:09.011Z,56.00
2019-05-12T03:46:09.231Z,60.00
2019-05-12T03:47:09.454Z,60.00
2019-05-12T03:48:09.678Z,60.00
2019-05-12T03:49:09.902Z,64.00
2019-05-12T03:50:10.125Z,64.00
2019-05-12T03:51:10.349Z,64.00
2019-05-12T03:52:10.569Z,68.00
2019-05-12T03:53:11.242Z,72.00
2019-05-12T03:54:11.018Z,68.00
2019-05-12T03:55:29.735Z,72.00
2019-05-12T03:56:14.855Z,76.00
2019-05-12T03:57:14.759Z,80.00
2019-05-12T03:58:14.335Z,84.00
2019-05-12T03:59:14.693Z,88.00
2019-05-12T04:00:15.641Z,96.00
2019-05-12T04:01:14.987Z,108.00
2019-05-12T04:02:15.130Z,112.00
2019-05-12T04:03:15.329Z,116.00
2019-05-12T04:04:15.210Z,120.00
2019-05-12T04:05:15.449Z,120.00
2019-05-12T04:06:15.421Z,124.00
2019-05-12T04:07:15.254Z,136.00
2019-05-12T04:08:15.863Z,152.00
2019-05-12T04:09:15.478Z,156.00
2019-05-12T04:10:15.656Z,168.00
2019-05-12T04:11:14.896Z,180.00
2019-05-12T04:12:15.099Z,188.00
2019-05-12T04:13:15.496Z,208.00
2019-05-12T04:14:15.475Z,220.00
2019-05-12T04:15:15.699Z,216.00
2019-05-12T04:16:16.442Z,236.00
2019-05-12T04:17:16.148Z,236.00
2019-05-12T04:18:16.717Z,252.00
2019-05-12T04:19:16.593Z,280.00
2019-05-12T04:20:16.822Z,308.00
2019-05-12T04:21:17.038Z,352.00
2019-05-12T04:22:17.262Z,396.00
2019-05-12T04:23:17.484Z,456.00
2019-05-12T04:24:17.706Z,480.00
2019-05-12T04:25:17.942Z,448.00
2019-05-12T04:26:18.157Z,496.00
2019-05-12T04:27:18.379Z,544.00
2019-05-12T04:28:18.603Z,564.00
2019-05-12T04:29:18.826Z,580.00
2019-05-12T04:30:19.054Z,624.00
2019-05-12T04:31:19.272Z,656.00
2019-05-12T04:32:19.496Z,656.00
2019-05-12T04:33:19.720Z,660.00
2019-05-12T04:34:19.948Z,696.00
2019-05-12T04:35:20.198Z,736.00
2019-05-12T04:36:20.389Z,760.00
2019-05-12T04:37:20.611Z,796.00
2019-05-12T04:38:20.837Z,824.00
2019-05-12T04:39:21.060Z,828.00
2019-05-12T04:40:24.607Z,872.00
2019-05-12T04:41:21.507Z,880.00
2019-05-12T04:42:24.873Z,856.00
2019-05-12T04:43:25.083Z,888.00
2019-05-12T04:44:24.903Z,908.00
2019-05-12T04:45:25.250Z,848.00
2019-05-12T04:46:25.224Z,848.00
2019-05-12T04:47:25.232Z,872.00
2019-05-12T04:48:25.786Z,868.00
2019-05-12T04:49:25.075Z,884.00
2019-05-12T04:50:24.553Z,892.00
2019-05-12T04:51:26.003Z,916.00
2019-05-12T04:52:24.876Z,944.00
2019-05-12T04:53:25.196Z,1096.00
2019-05-12T04:54:24.817Z,1172.00
2019-05-12T04:55:25.685Z,1224.00
2019-05-12T04:56:25.173Z,1276.00
2019-05-12T04:57:25.594Z,1332.00
2019-05-12T04:58:25.632Z,1356.00
2019-05-12T04:59:25.660Z,1372.00
2019-05-12T05:00:26.019Z,1472.00
2019-05-12T05:01:25.969Z,1660.00
2019-05-12T05:02:26.197Z,1772.00
2019-05-12T05:03:26.419Z,1952.00
2019-05-12T05:04:26.631Z,1936.00
2019-05-12T05:05:26.853Z,1880.00
2019-05-12T05:06:27.079Z,1728.00
2019-05-12T05:07:27.301Z,1776.00
2019-05-12T05:08:27.521Z,1932.00
2019-05-12T05:09:27.745Z,1880.00
2019-05-12T05:10:27.968Z,1848.00
2019-05-12T05:11:28.191Z,1948.00
2019-05-12T05:12:28.413Z,2008.00
2019-05-12T05:13:28.637Z,1948.00
2019-05-12T05:14:28.856Z,1996.00
2019-05-12T05:15:29.078Z,2124.00
2019-05-12T05:16:29.301Z,2112.00
2019-05-12T05:17:29.524Z,2104.00
2019-05-12T05:18:29.747Z,2052.00
2019-05-12T05:19:29.974Z,1996.00
2019-05-12T05:20:30.196Z,1880.00
2019-05-12T05:21:30.420Z,1740.00
2019-05-12T05:22:30.639Z,1588.00
2019-05-12T05:23:30.865Z,1644.00
2019-05-12T05:24:31.088Z,1660.00
2019-05-12T05:25:31.311Z,1644.00
2019-05-12T05:26:36.406Z,1636.00
2019-05-12T05:27:33.883Z,1664.00
2019-05-12T05:28:33.832Z,1692.00
2019-05-12T05:29:33.287Z,1644.00
2019-05-12T05:30:33.982Z,1636.00
2019-05-12T05:31:33.669Z,1696.00
2019-05-12T05:32:33.936Z,1840.00
2019-05-12T05:33:34.011Z,1936.00
2019-05-12T05:34:34.245Z,1940.00
2019-05-12T05:35:35.179Z,1836.00
2019-05-12T05:36:34.576Z,1808.00
2019-05-12T05:37:36.898Z,1784.00
2019-05-12T05:38:34.377Z,1816.00
2019-05-12T05:39:35.664Z,1824.00
2019-05-12T05:40:35.891Z,1780.00
2019-05-12T05:41:34.880Z,1720.00
2019-05-12T05:42:35.593Z,1836.00
2019-05-12T05:43:35.329Z,1848.00
2019-05-12T05:44:37.965Z,1872.00
2019-05-12T05:45:35.776Z,1852.00
2019-05-12T05:46:39.146Z,1816.00
2019-05-12T05:47:36.226Z,1780.00
2019-05-12T05:48:36.449Z,1788.00
2019-05-12T05:49:36.671Z,1684.00
2019-05-12T05:50:36.912Z,1584.00
2019-05-12T05:51:39.658Z,1536.00
2019-05-12T05:52:38.765Z,1584.00
2019-05-12T05:53:37.563Z,1596.00
2019-05-12T05:54:39.970Z,1624.00
2019-05-12T05:55:38.007Z,1780.00
2019-05-12T05:56:42.676Z,1976.00
2019-05-12T05:57:38.469Z,2044.00
2019-05-12T05:58:40.120Z,2112.00
2019-05-12T05:59:38.903Z,2280.00
2019-05-12T06:00:39.582Z,2420.00
2019-05-12T06:01:40.192Z,2476.00
2019-05-12T06:02:40.571Z,2632.00
2019-05-12T06:03:39.795Z,2772.00
2019-05-12T06:04:45.493Z,2928.00
2019-05-12T06:05:40.243Z,2972.00
2019-05-12T06:06:42.527Z,2944.00
2019-05-12T06:07:40.687Z,3056.00
2019-05-12T06:08:40.911Z,3108.00
2019-05-12T06:09:43.160Z,3272.00
2019-05-12T06:10:43.376Z,3392.00
2019-05-12T06:11:43.712Z,3404.00
2019-05-12T06:12:46.397Z,3440.00
2019-05-12T06:13:44.133Z,3676.00
2019-05-12T06:14:46.690Z,4152.00
2019-05-12T06:15:43.367Z,4968.00
2019-05-12T06:16:43.331Z,5824.00
2019-05-12T06:17:43.852Z,6448.00
2019-05-12T06:18:44.280Z,7124.00
2019-05-12T06:19:43.826Z,7092.00
2019-05-12T06:20:43.866Z,6980.00
2019-05-12T06:21:44.183Z,6704.00
2019-05-12T06:22:48.455Z,6896.00
2019-05-12T06:23:44.327Z,7860.00
2019-05-12T06:24:49.138Z,7848.00
2019-05-12T06:25:51.173Z,8092.00
2019-05-12T06:26:56.792Z,7836.00
2019-05-12T06:27:45.207Z,8196.00
2019-05-12T06:28:45.433Z,8944.00
2019-05-12T06:29:45.655Z,8844.00
2019-05-12T06:30:49.508Z,8552.00
2019-05-12T06:31:46.101Z,7892.00
2019-05-12T06:32:50.508Z,7368.00
2019-05-12T06:33:46.552Z,7476.00
2019-05-12T06:34:50.873Z,8076.00
2019-05-12T06:35:47.001Z,9156.00
2019-05-12T06:36:47.229Z,9692.00
2019-05-12T06:37:57.425Z,9608.00
2019-05-12T06:38:47.671Z,9736.00
2019-05-12T06:39:51.032Z,9776.00
2019-05-12T06:40:48.117Z,9952.00
2019-05-12T06:41:48.343Z,9384.00
2019-05-12T06:42:53.117Z,8652.00
2019-05-12T06:43:48.792Z,9552.00
2019-05-12T06:44:53.602Z,10216.00
2019-05-12T06:45:49.242Z,10636.00
2019-05-12T06:46:53.570Z,11352.00
2019-05-12T06:47:51.706Z,11644.00
2019-05-12T06:48:49.925Z,11432.00
2019-05-12T06:49:56.427Z,11808.00
2019-05-12T06:50:50.372Z,11904.00
2019-05-12T06:51:53.684Z,10956.00
2019-05-12T06:52:57.730Z,11028.00
2019-05-12T06:53:53.317Z,12264.00
2019-05-12T06:54:56.559Z,12068.00
2019-05-12T06:55:53.867Z,12500.00
2019-05-12T06:56:57.873Z,12464.00
2019-05-12T06:57:53.886Z,13764.00
2019-05-12T06:58:53.462Z,12244.00
2019-05-12T06:59:53.078Z,14420.00
2019-05-12T07:00:54.057Z,11044.00
2019-05-12T07:01:58.351Z,10800.00
2019-05-12T07:02:55.150Z,10796.00
2019-05-12T07:03:53.490Z,10840.00
2019-05-12T07:04:58.987Z,11124.00
2019-05-12T07:05:53.800Z,11324.00
2019-05-12T07:06:56.280Z,11276.00
2019-05-12T07:07:54.238Z,11100.00
2019-05-12T07:09:03.423Z,11716.00
2019-05-12T07:10:02.255Z,12472.00
2019-05-12T07:11:01.855Z,12692.00
2019-05-12T07:12:02.960Z,12488.00
2019-05-12T07:13:01.669Z,12356.00
2019-05-12T07:14:04.481Z,12952.00
2019-05-12T07:14:58.610Z,12712.00
2019-05-12T07:15:56.042Z,13964.00
2019-05-12T07:17:01.764Z,16224.00
2019-05-12T07:17:56.490Z,16224.00
2019-05-12T07:18:56.715Z,16096.00
2019-05-12T07:19:58.312Z,14472.00
2019-05-12T07:20:57.164Z,15456.00
2019-05-12T07:22:00.080Z,15264.00
2019-05-12T07:22:57.615Z,15136.00
2019-05-12T07:24:00.512Z,12828.00
2019-05-12T07:24:58.064Z,15200.00
2019-05-12T07:25:58.292Z,11624.00
2019-05-12T07:27:04.364Z,11836.00
2019-05-12T07:28:01.490Z,12752.00
2019-05-12T07:28:58.950Z,11164.00
2019-05-12T07:29:59.175Z,11112.00
2019-05-12T07:30:59.402Z,10636.00
2019-05-12T07:31:59.626Z,10352.00
2019-05-12T07:33:01.251Z,10116.00
2019-05-12T07:34:00.076Z,9852.00
2019-05-12T07:35:00.302Z,8892.00
2019-05-12T07:36:01.975Z,8692.00
2019-05-12T07:37:00.752Z,8564.00
2019-05-12T07:38:00.977Z,8692.00
2019-05-12T07:39:04.092Z,8684.00
2019-05-12T07:40:01.427Z,8924.00
2019-05-12T07:41:06.835Z,9280.00
2019-05-12T07:42:03.662Z,9636.00
2019-05-12T07:43:03.950Z,9936.00
2019-05-12T07:44:03.619Z,10128.00
2019-05-12T07:45:03.972Z,10172.00
2019-05-12T07:46:06.882Z,10440.00
2019-05-12T07:47:03.582Z,10616.00
2019-05-12T07:48:07.718Z,10764.00
2019-05-12T07:49:03.884Z,10788.00
2019-05-12T07:50:04.515Z,10700.00
2019-05-12T07:51:04.235Z,10536.00
2019-05-12T07:52:04.133Z,9936.00
2019-05-12T07:53:04.605Z,9060.00
2019-05-12T07:54:04.565Z,9364.00
2019-05-12T07:55:04.789Z,8224.00
2019-05-12T07:56:05.028Z,8176.00
2019-05-12T07:57:11.947Z,11440.00
2019-05-12T07:58:13.823Z,11424.00
2019-05-12T07:59:05.692Z,11896.00
2019-05-12T08:00:05.964Z,11560.00
2019-05-12T08:01:07.995Z,12804.00
2019-05-12T08:02:06.371Z,11876.00
2019-05-12T08:03:16.045Z,10104.00
2019-05-12T08:04:06.821Z,10076.00
2019-05-12T08:05:11.160Z,11248.00
2019-05-12T08:06:07.271Z,8676.00
2019-05-12T08:07:07.497Z,8492.00
2019-05-12T08:08:10.858Z,8200.00
2019-05-12T08:09:07.954Z,8028.00
2019-05-12T08:10:17.714Z,8092.00
2019-05-12T08:11:08.390Z,8204.00
2019-05-12T08:12:09.604Z,8360.00
2019-05-12T08:13:08.843Z,8008.00
2019-05-12T08:14:13.159Z,7320.00
2019-05-12T08:15:09.752Z,7340.00
2019-05-12T08:16:09.522Z,7564.00
2019-05-12T08:17:11.909Z,8080.00
2019-05-12T08:18:09.973Z,10312.00
2019-05-12T08:19:17.148Z,11576.00
2019-05-12T08:20:10.424Z,11468.00
2019-05-12T08:21:10.648Z,11504.00
2019-05-12T08:22:10.874Z,11364.00
2019-05-12T08:23:11.101Z,12008.00
2019-05-12T08:24:11.328Z,11824.00
2019-05-12T08:25:13.512Z,12292.00
2019-05-12T08:26:17.733Z,12796.00
2019-05-12T08:27:14.312Z,13008.00
2019-05-12T08:28:16.283Z,13112.00
2019-05-12T08:29:16.999Z,13176.00
2019-05-12T08:30:13.872Z,10336.00
2019-05-12T08:31:14.042Z,12512.00
2019-05-12T08:32:15.982Z,13608.00
2019-05-12T08:33:14.552Z,12664.00
2019-05-12T08:34:13.750Z,9664.00
2019-05-12T08:35:14.140Z,9444.00
2019-05-12T08:36:16.279Z,9276.00
2019-05-12T08:37:14.269Z,9564.00
2019-05-12T08:38:14.686Z,9664.00
2019-05-12T08:39:21.338Z,9200.00
2019-05-12T08:40:15.551Z,8736.00
2019-05-12T08:41:15.173Z,8632.00
2019-05-12T08:42:15.402Z,8524.00
2019-05-12T08:43:15.627Z,8584.00
2019-05-12T08:44:17.600Z,9044.00
2019-05-12T08:45:27.415Z,12048.00
2019-05-12T08:46:16.302Z,11820.00
2019-05-12T08:47:16.528Z,11832.00
2019-05-12T08:48:21.426Z,11820.00
2019-05-12T08:49:16.980Z,11820.00
2019-05-12T08:50:17.205Z,11840.00
2019-05-12T08:51:20.090Z,12016.00
2019-05-12T08:52:17.659Z,12208.00
2019-05-12T08:53:20.834Z,12484.00
2019-05-12T08:54:18.111Z,12724.00
2019-05-12T08:55:22.764Z,13040.00
2019-05-12T08:56:19.843Z,13224.00
2019-05-12T08:57:18.784Z,13164.00
2019-05-12T08:58:30.338Z,12916.00
2019-05-12T08:59:24.203Z,11120.00
2019-05-12T09:00:19.469Z,8020.00
2019-05-12T09:01:20.242Z,7572.00
2019-05-12T09:02:19.886Z,9072.00
2019-05-12T09:03:25.309Z,10224.00
2019-05-12T09:04:20.341Z,10012.00
2019-05-12T09:05:25.840Z,9776.00
2019-05-12T09:06:20.791Z,9784.00
2019-05-12T09:07:21.041Z,10080.00
2019-05-12T09:08:21.253Z,10428.00
2019-05-12T09:09:23.272Z,10556.00
2019-05-12T09:10:23.512Z,10856.00
2019-05-12T09:11:24.158Z,11144.00
2019-05-12T09:12:23.286Z,11600.00
2019-05-12T09:13:23.435Z,12088.00
2019-05-12T09:14:23.918Z,12452.00
2019-05-12T09:15:23.982Z,12068.00
2019-05-12T09:16:24.449Z,12100.00
2019-05-12T09:17:23.351Z,8876.00
2019-05-12T09:18:28.510Z,11608.00
2019-05-12T09:19:26.686Z,11084.00
2019-05-12T09:20:24.313Z,8652.00
2019-05-12T09:21:31.934Z,7280.00
2019-05-12T09:22:24.416Z,7052.00
2019-05-12T09:23:24.653Z,6856.00
2019-05-12T09:24:27.322Z,9340.00
2019-05-12T09:25:25.100Z,6860.00
2019-05-12T09:26:28.439Z,9908.00
2019-05-12T09:27:25.565Z,9616.00
2019-05-12T09:28:25.790Z,9256.00
2019-05-12T09:29:26.020Z,8988.00
2019-05-12T09:30:26.248Z,8896.00
2019-05-12T09:31:29.456Z,9204.00
2019-05-12T09:32:26.703Z,9156.00
2019-05-12T09:33:31.696Z,7296.00
2019-05-12T09:34:27.151Z,6232.00
2019-05-12T09:35:28.686Z,6108.00
2019-05-12T09:36:27.607Z,9244.00
2019-05-12T09:37:30.967Z,9196.00
2019-05-12T09:38:28.055Z,9216.00
2019-05-12T09:39:28.294Z,9112.00
2019-05-12T09:40:28.518Z,9000.00
2019-05-12T09:41:28.747Z,9024.00
2019-05-12T09:42:30.171Z,9064.00
2019-05-12T09:43:29.184Z,9152.00
2019-05-12T09:44:30.571Z,9328.00
2019-05-12T09:45:29.653Z,9388.00
2019-05-12T09:46:34.365Z,9228.00
2019-05-12T09:47:30.215Z,9264.00
2019-05-12T09:48:30.333Z,9372.00
2019-05-12T09:49:31.498Z,8244.00
2019-05-12T09:50:30.789Z,9588.00
2019-05-12T09:51:32.831Z,9812.00
2019-05-12T09:52:32.962Z,7112.00
2019-05-12T09:53:33.724Z,9004.00
2019-05-12T09:54:35.371Z,7144.00
2019-05-12T09:55:34.163Z,6520.00
2019-05-12T09:56:34.192Z,8728.00
2019-05-12T09:57:40.816Z,8788.00
2019-05-12T09:58:33.728Z,8768.00
2019-05-12T09:59:33.644Z,5844.00
2019-05-12T10:00:35.917Z,9016.00
2019-05-12T10:01:35.285Z,8852.00
2019-05-12T10:02:33.497Z,8804.00
2019-05-12T10:03:38.773Z,8832.00
2019-05-12T10:04:33.975Z,8832.00
2019-05-12T10:05:41.025Z,9060.00
2019-05-12T10:06:34.410Z,9376.00
2019-05-12T10:07:34.635Z,9472.00
2019-05-12T10:08:35.694Z,7320.00
2019-05-12T10:09:35.090Z,9456.00
2019-05-12T10:10:40.030Z,9092.00
2019-05-12T10:11:35.541Z,6244.00
2019-05-12T10:12:45.059Z,8860.00
2019-05-12T10:13:35.994Z,7440.00
2019-05-12T10:14:40.619Z,7236.00
2019-05-12T10:15:36.447Z,5688.00
2019-05-12T10:16:39.549Z,4988.00
2019-05-12T10:17:36.905Z,8256.00
2019-05-12T10:18:37.130Z,8144.00
2019-05-12T10:19:37.358Z,8040.00
2019-05-12T10:20:39.806Z,7960.00
2019-05-12T10:21:37.802Z,7960.00
2019-05-12T10:22:40.169Z,7928.00
2019-05-12T10:23:38.260Z,7904.00
2019-05-12T10:24:54.648Z,7952.00
2019-05-12T10:25:38.714Z,7988.00
2019-05-12T10:26:41.230Z,8024.00
2019-05-12T10:27:39.187Z,8144.00
2019-05-12T10:28:43.719Z,8404.00
2019-05-12T10:29:39.623Z,8644.00
2019-05-12T10:30:39.848Z,8732.00
2019-05-12T10:31:40.083Z,7564.00
2019-05-12T10:32:40.328Z,9044.00
2019-05-12T10:33:40.541Z,8976.00
2019-05-12T10:34:40.766Z,9140.00
2019-05-12T10:35:41.008Z,9180.00
2019-05-12T10:36:44.991Z,9072.00
2019-05-12T10:37:43.377Z,9244.00
2019-05-12T10:38:43.430Z,9544.00
2019-05-12T10:39:41.902Z,10004.00
2019-05-12T10:40:44.221Z,10328.00
2019-05-12T10:41:43.671Z,10148.00
2019-05-12T10:42:46.228Z,9900.00
2019-05-12T10:43:43.360Z,9772.00
2019-05-12T10:44:43.734Z,9952.00
2019-05-12T10:45:44.204Z,9980.00
2019-05-12T10:46:43.486Z,7232.00
2019-05-12T10:47:43.712Z,7084.00
2019-05-12T10:48:44.353Z,7676.00
2019-05-12T10:49:44.222Z,8740.00
2019-05-12T10:50:44.448Z,8440.00
2019-05-12T10:51:47.564Z,8100.00
2019-05-12T10:52:44.861Z,7896.00
2019-05-12T10:53:48.281Z,10896.00
2019-05-12T10:54:45.304Z,8620.00
2019-05-12T10:55:45.533Z,7816.00
2019-05-12T10:56:45.758Z,7864.00
2019-05-12T10:57:47.212Z,7976.00
2019-05-12T10:58:46.226Z,10860.00
2019-05-12T10:59:48.686Z,8632.00
2019-05-12T11:00:46.669Z,10728.00
2019-05-12T11:01:49.087Z,9552.00
2019-05-12T11:02:47.122Z,8588.00
2019-05-12T11:03:50.815Z,10592.00
2019-05-12T11:04:47.578Z,10784.00
2019-05-12T11:05:47.810Z,11108.00
2019-05-12T11:06:48.579Z,11296.00
2019-05-12T11:07:48.257Z,9596.00
2019-05-12T11:08:51.212Z,7732.00
2019-05-12T11:09:48.747Z,6912.00
2019-05-12T11:10:50.346Z,6724.00
2019-05-12T11:11:49.179Z,6700.00
2019-05-12T11:12:49.383Z,6904.00
2019-05-12T11:13:50.099Z,9976.00
2019-05-12T11:14:49.839Z,8952.00
2019-05-12T11:15:50.074Z,9704.00
2019-05-12T11:16:50.291Z,9752.00
2019-05-12T11:17:50.518Z,9940.00
2019-05-12T11:18:50.746Z,10056.00
2019-05-12T11:19:53.661Z,9880.00
2019-05-12T11:20:51.198Z,7704.00
2019-05-12T11:21:53.577Z,6972.00
2019-05-12T11:22:54.116Z,9404.00
2019-05-12T11:23:54.162Z,9280.00
2019-05-12T11:24:53.487Z,9284.00
2019-05-12T11:25:53.365Z,9284.00
2019-05-12T11:26:53.608Z,9248.00
2019-05-12T11:27:54.877Z,9200.00
2019-05-12T11:28:53.309Z,9124.00
2019-05-12T11:29:53.500Z,8916.00
2019-05-12T11:30:53.467Z,8724.00
2019-05-12T11:31:54.005Z,5600.00
2019-05-12T11:32:54.254Z,7140.00
2019-05-12T11:33:54.286Z,9000.00
2019-05-12T11:34:54.354Z,8964.00
2019-05-12T11:35:54.580Z,8916.00
2019-05-12T11:36:54.809Z,8964.00
2019-05-12T11:37:55.035Z,9024.00
2019-05-12T11:38:55.266Z,7652.00
2019-05-12T11:39:55.485Z,9200.00
2019-05-12T11:40:55.711Z,9288.00
2019-05-12T11:41:55.945Z,6408.00
2019-05-12T11:43:00.912Z,6824.00
2019-05-12T11:43:56.401Z,6764.00
2019-05-12T11:44:56.634Z,8712.00
2019-05-12T11:45:56.872Z,6820.00
2019-05-12T11:46:57.103Z,7088.00
2019-05-12T11:48:05.033Z,7344.00
2019-05-12T11:48:57.552Z,7864.00
2019-05-12T11:49:58.476Z,10052.00
2019-05-12T11:50:58.006Z,8020.00
2019-05-12T11:52:01.007Z,6276.00
2019-05-12T11:52:58.461Z,8176.00
2019-05-12T11:54:03.510Z,6208.00
2019-05-12T11:54:58.914Z,5820.00
2019-05-12T11:56:02.201Z,5860.00
2019-05-12T11:56:59.368Z,8632.00
2019-05-12T11:58:00.488Z,8528.00
2019-05-12T11:58:59.822Z,8476.00
2019-05-12T12:00:02.258Z,8368.00
2019-05-12T12:01:04.704Z,8336.00
2019-05-12T12:02:00.500Z,8324.00
2019-05-12T12:03:03.740Z,8296.00
2019-05-12T12:04:00.960Z,8308.00
2019-05-12T12:05:01.190Z,8380.00
2019-05-12T12:06:01.413Z,8464.00
2019-05-12T12:07:01.658Z,8528.00
2019-05-12T12:08:04.056Z,8564.00
2019-05-12T12:09:03.930Z,8664.00
2019-05-12T12:10:03.730Z,8764.00
2019-05-12T12:11:03.955Z,8872.00
2019-05-12T12:12:07.108Z,9008.00
2019-05-12T12:13:03.775Z,9176.00
2019-05-12T12:14:08.427Z,9276.00
2019-05-12T12:15:04.707Z,9368.00
2019-05-12T12:16:08.396Z,9352.00
2019-05-12T12:17:03.941Z,6552.00
2019-05-12T12:18:13.142Z,9168.00
2019-05-12T12:19:05.830Z,7432.00
2019-05-12T12:20:04.629Z,6228.00
2019-05-12T12:21:07.508Z,6116.00
2019-05-12T12:22:05.086Z,6180.00
2019-05-12T12:23:10.583Z,6388.00
2019-05-12T12:24:05.541Z,6940.00
2019-05-12T12:25:10.645Z,7808.00
2019-05-12T12:26:06.002Z,11032.00
2019-05-12T12:27:06.290Z,11400.00